sensor_id;sensor_type;location;lat;lon;timestamp;pressure;altitude;pressure_sealevel;temperature;humidity
48390;BME280;34643;47.964;7.982;2022-07-29T00:01:56;96527.03;;;23.01;54.92
48390;BME280;34643;47.964;7.982;2022-07-29T00:06:57;96522.75;;;23.00;54.89
48390;BME280;34643;47.964;7.982;2022-07-29T00:11:59;96528.25;;;23.06;54.44
48390;BME280;34643;47.964;7.982;2022-07-29T00:16:59;96528.97;;;22.98;54.77
48390;BME280;34643;47.964;7.982;2022-07-29T00:22:00;96524.91;;;23.04;54.73
48390;BME280;34643;47.964;7.982;2022-07-29T00:27:00;96519.66;;;23.04;54.54
48390;BME280;34643;47.964;7.982;2022-07-29T00:32:01;96521.06;;;22.98;54.87
48390;BME280;34643;47.964;7.982;2022-07-29T00:37:01;96514.19;;;22.97;54.75
48390;BME280;34643;47.964;7.982;2022-07-29T00:42:03;96510.56;;;22.98;54.81
48390;BME280;34643;47.964;7.982;2022-07-29T00:47:03;96507.91;;;22.98;54.37
48390;BME280;34643;47.964;7.982;2022-07-29T00:52:04;96505.97;;;23.01;54.19
48390;BME280;34643;47.964;7.982;2022-07-29T00:57:05;96508.56;;;22.92;54.40
48390;BME280;34643;47.964;7.982;2022-07-29T01:02:06;96508.47;;;22.76;54.78
48390;BME280;34643;47.964;7.982;2022-07-29T01:07:06;96511.91;;;22.76;54.89
48390;BME280;34643;47.964;7.982;2022-07-29T01:12:07;96507.69;;;22.84;54.63
48390;BME280;34643;47.964;7.982;2022-07-29T01:17:11;96502.00;;;22.70;54.46
48390;BME280;34643;47.964;7.982;2022-07-29T01:32:54;96497.00;;;22.85;53.90
48390;BME280;34643;47.964;7.982;2022-07-29T01:37:57;96498.59;;;22.78;53.94
48390;BME280;34643;47.964;7.982;2022-07-29T01:43:00;96499.28;;;22.80;53.91
48390;BME280;34643;47.964;7.982;2022-07-29T01:48:04;96491.59;;;22.61;54.04
48390;BME280;34643;47.964;7.982;2022-07-29T01:53:07;96498.84;;;22.40;54.68
48390;BME280;34643;47.964;7.982;2022-07-29T01:58:09;96495.47;;;22.30;55.17
48390;BME280;34643;47.964;7.982;2022-07-29T02:03:11;96501.47;;;22.23;55.31
48390;BME280;34643;47.964;7.982;2022-07-29T02:08:11;96496.59;;;22.46;54.55
48390;BME280;34643;47.964;7.982;2022-07-29T02:13:13;96497.44;;;22.54;54.62
48390;BME280;34643;47.964;7.982;2022-07-29T02:18:15;96503.84;;;22.52;54.47
48390;BME280;34643;47.964;7.982;2022-07-29T02:23:18;96502.00;;;22.44;54.31
48390;BME280;34643;47.964;7.982;2022-07-29T02:28:20;96498.69;;;22.42;54.45
48390;BME280;34643;47.964;7.982;2022-07-29T02:33:22;96504.09;;;22.40;54.35
48390;BME280;34643;47.964;7.982;2022-07-29T02:38:23;96509.22;;;22.42;54.26
48390;BME280;34643;47.964;7.982;2022-07-29T02:43:43;96502.66;;;22.46;53.95
48390;BME280;34643;47.964;7.982;2022-07-29T02:54:06;96502.22;;;22.33;54.18
48390;BME280;34643;47.964;7.982;2022-07-29T02:59:09;96499.38;;;22.44;54.05
48390;BME280;34643;47.964;7.982;2022-07-29T03:04:11;96509.09;;;22.52;53.85
48390;BME280;34643;47.964;7.982;2022-07-29T03:09:12;96507.16;;;22.54;53.41
48390;BME280;34643;47.964;7.982;2022-07-29T03:14:13;96506.22;;;22.37;53.94
48390;BME280;34643;47.964;7.982;2022-07-29T03:19:13;96497.09;;;22.31;53.77
48390;BME280;34643;47.964;7.982;2022-07-29T03:24:27;96487.44;;;22.32;53.81
48390;BME280;34643;47.964;7.982;2022-07-29T03:29:28;96489.44;;;22.20;53.56
48390;BME280;34643;47.964;7.982;2022-07-29T03:34:28;96490.34;;;22.29;53.33
48390;BME280;34643;47.964;7.982;2022-07-29T03:39:29;96498.47;;;22.35;53.41
48390;BME280;34643;47.964;7.982;2022-07-29T03:44:31;96489.44;;;22.38;53.18
48390;BME280;34643;47.964;7.982;2022-07-29T03:49:32;96494.13;;;22.52;52.72
48390;BME280;34643;47.964;7.982;2022-07-29T03:54:34;96502.91;;;22.35;53.13
48390;BME280;34643;47.964;7.982;2022-07-29T03:59:35;96496.72;;;22.44;52.75
48390;BME280;34643;47.964;7.982;2022-07-29T04:04:35;96498.69;;;22.42;52.91
48390;BME280;34643;47.964;7.982;2022-07-29T04:09:36;96496.00;;;22.34;52.80
48390;BME280;34643;47.964;7.982;2022-07-29T04:14:36;96501.03;;;22.27;52.69
48390;BME280;34643;47.964;7.982;2022-07-29T04:19:36;96499.44;;;22.34;52.42
48390;BME280;34643;47.964;7.982;2022-07-29T04:24:36;96504.41;;;22.37;52.56
48390;BME280;34643;47.964;7.982;2022-07-29T04:29:37;96513.47;;;22.25;52.74
48390;BME280;34643;47.964;7.982;2022-07-29T04:34:37;96518.13;;;22.31;52.68
48390;BME280;34643;47.964;7.982;2022-07-29T04:39:38;96512.22;;;22.29;52.33
48390;BME280;34643;47.964;7.982;2022-07-29T04:44:38;96507.09;;;22.28;52.39
48390;BME280;34643;47.964;7.982;2022-07-29T04:49:38;96527.56;;;22.24;52.46
48390;BME280;34643;47.964;7.982;2022-07-29T04:54:38;96529.78;;;22.29;52.31
48390;BME280;34643;47.964;7.982;2022-07-29T04:59:39;96530.06;;;22.26;52.42
48390;BME280;34643;47.964;7.982;2022-07-29T05:04:39;96532.78;;;22.34;52.41
48390;BME280;34643;47.964;7.982;2022-07-29T05:09:39;96532.41;;;22.29;52.37
48390;BME280;34643;47.964;7.982;2022-07-29T05:14:40;96532.00;;;22.59;51.88
48390;BME280;34643;47.964;7.982;2022-07-29T05:19:40;96532.31;;;22.83;51.12
48390;BME280;34643;47.964;7.982;2022-07-29T05:24:40;96527.78;;;22.93;50.83
48390;BME280;34643;47.964;7.982;2022-07-29T05:29:41;96536.72;;;23.00;50.79
48390;BME280;34643;47.964;7.982;2022-07-29T05:34:41;96537.13;;;23.05;50.77
48390;BME280;34643;47.964;7.982;2022-07-29T05:39:42;96541.91;;;23.10;50.47
48390;BME280;34643;47.964;7.982;2022-07-29T05:44:42;96553.63;;;23.15;50.35
48390;BME280;34643;47.964;7.982;2022-07-29T05:49:42;96572.56;;;23.19;50.52
48390;BME280;34643;47.964;7.982;2022-07-29T05:54:42;96574.91;;;23.22;50.25
48390;BME280;34643;47.964;7.982;2022-07-29T05:59:43;96576.22;;;23.26;50.58
48390;BME280;34643;47.964;7.982;2022-07-29T06:04:43;96583.69;;;23.31;50.63
48390;BME280;34643;47.964;7.982;2022-07-29T06:09:43;96584.44;;;22.79;51.95
48390;BME280;34643;47.964;7.982;2022-07-29T06:14:44;96592.50;;;22.42;53.88
48390;BME280;34643;47.964;7.982;2022-07-29T06:19:44;96595.84;;;22.16;55.31
48390;BME280;34643;47.964;7.982;2022-07-29T06:24:44;96605.38;;;22.27;55.50
48390;BME280;34643;47.964;7.982;2022-07-29T06:29:44;96593.66;;;22.11;56.54
48390;BME280;34643;47.964;7.982;2022-07-29T06:34:45;96596.19;;;22.31;55.86
48390;BME280;34643;47.964;7.982;2022-07-29T06:39:45;96597.25;;;22.38;55.26
48390;BME280;34643;47.964;7.982;2022-07-29T06:44:45;96593.72;;;22.47;54.98
48390;BME280;34643;47.964;7.982;2022-07-29T06:49:46;96601.59;;;22.47;55.03
48390;BME280;34643;47.964;7.982;2022-07-29T06:54:46;96599.06;;;22.37;56.04
48390;BME280;34643;47.964;7.982;2022-07-29T06:59:48;96595.75;;;22.53;55.61
48390;BME280;34643;47.964;7.982;2022-07-29T07:04:48;96601.44;;;22.31;56.39
48390;BME280;34643;47.964;7.982;2022-07-29T07:09:48;96604.94;;;22.49;56.65
48390;BME280;34643;47.964;7.982;2022-07-29T07:14:49;96618.28;;;22.56;56.34
48390;BME280;34643;47.964;7.982;2022-07-29T07:19:49;96622.63;;;22.47;56.72
48390;BME280;34643;47.964;7.982;2022-07-29T07:24:49;96627.31;;;22.53;56.45
48390;BME280;34643;47.964;7.982;2022-07-29T07:29:50;96630.31;;;22.58;54.87
48390;BME280;34643;47.964;7.982;2022-07-29T07:34:50;96619.34;;;22.45;55.23
48390;BME280;34643;47.964;7.982;2022-07-29T07:39:51;96640.69;;;22.42;55.18
48390;BME280;34643;47.964;7.982;2022-07-29T07:44:51;96646.16;;;22.49;56.39
48390;BME280;34643;47.964;7.982;2022-07-29T07:49:52;96649.53;;;22.41;54.73
48390;BME280;34643;47.964;7.982;2022-07-29T07:54:52;96649.69;;;22.39;55.06
48390;BME280;34643;47.964;7.982;2022-07-29T07:59:53;96655.34;;;22.45;56.10
48390;BME280;34643;47.964;7.982;2022-07-29T08:04:53;96662.47;;;22.52;56.26
48390;BME280;34643;47.964;7.982;2022-07-29T08:09:53;96658.50;;;22.66;55.71
48390;BME280;34643;47.964;7.982;2022-07-29T08:14:53;96647.81;;;22.68;55.64
48390;BME280;34643;47.964;7.982;2022-07-29T08:19:54;96649.16;;;22.72;55.25
48390;BME280;34643;47.964;7.982;2022-07-29T08:24:54;96647.38;;;22.72;55.41
48390;BME280;34643;47.964;7.982;2022-07-29T08:29:55;96646.38;;;22.73;54.94
48390;BME280;34643;47.964;7.982;2022-07-29T08:34:56;96648.59;;;22.78;54.32
48390;BME280;34643;47.964;7.982;2022-07-29T08:39:56;96652.31;;;22.75;53.59
48390;BME280;34643;47.964;7.982;2022-07-29T08:44:57;96652.47;;;22.74;53.66
48390;BME280;34643;47.964;7.982;2022-07-29T08:49:57;96654.50;;;22.80;53.39
48390;BME280;34643;47.964;7.982;2022-07-29T08:54:58;96652.31;;;22.75;52.81
48390;BME280;34643;47.964;7.982;2022-07-29T08:59:59;96659.09;;;22.78;53.04
48390;BME280;34643;47.964;7.982;2022-07-29T09:05:00;96655.63;;;22.77;52.62
48390;BME280;34643;47.964;7.982;2022-07-29T09:10:02;96661.78;;;22.86;53.12
48390;BME280;34643;47.964;7.982;2022-07-29T09:15:04;96663.59;;;22.86;53.24
48390;BME280;34643;47.964;7.982;2022-07-29T09:20:11;96657.53;;;22.85;53.41
48390;BME280;34643;47.964;7.982;2022-07-29T09:25:12;96654.59;;;22.88;53.65
48390;BME280;34643;47.964;7.982;2022-07-29T09:30:13;96659.84;;;22.88;53.51
48390;BME280;34643;47.964;7.982;2022-07-29T09:35:18;96656.09;;;22.91;53.28
48390;BME280;34643;47.964;7.982;2022-07-29T09:40:20;96661.06;;;22.94;53.28
48390;BME280;34643;47.964;7.982;2022-07-29T09:45:31;96657.28;;;22.96;53.62
48390;BME280;34643;47.964;7.982;2022-07-29T09:50:38;96656.16;;;22.99;53.78
48390;BME280;34643;47.964;7.982;2022-07-29T09:55:46;96655.69;;;23.04;53.13
48390;BME280;34643;47.964;7.982;2022-07-29T10:00:47;96654.88;;;23.03;52.89
48390;BME280;34643;47.964;7.982;2022-07-29T10:06:03;96660.56;;;22.98;52.33
48390;BME280;34643;47.964;7.982;2022-07-29T10:11:11;96655.69;;;23.04;52.36
48390;BME280;34643;47.964;7.982;2022-07-29T10:16:12;96654.03;;;23.03;52.28
48390;BME280;34643;47.964;7.982;2022-07-29T10:21:13;96651.41;;;23.03;52.30
48390;BME280;34643;47.964;7.982;2022-07-29T10:26:13;96653.59;;;23.07;52.44
48390;BME280;34643;47.964;7.982;2022-07-29T10:31:38;96642.25;;;23.07;52.76
48390;BME280;34643;47.964;7.982;2022-07-29T10:36:44;96646.56;;;23.08;52.30
48390;BME280;34643;47.964;7.982;2022-07-29T10:41:59;96655.78;;;23.12;52.46
48390;BME280;34643;47.964;7.982;2022-07-29T10:47:01;96664.50;;;23.12;52.37
48390;BME280;34643;47.964;7.982;2022-07-29T10:52:05;96661.06;;;23.12;51.43
48390;BME280;34643;47.964;7.982;2022-07-29T10:57:11;96663.91;;;23.19;51.25
48390;BME280;34643;47.964;7.982;2022-07-29T11:07:31;96662.75;;;23.21;51.02
48390;BME280;34643;47.964;7.982;2022-07-29T11:28:18;96656.38;;;23.24;50.58
48390;BME280;34643;47.964;7.982;2022-07-29T11:33:28;96670.34;;;23.24;49.69
48390;BME280;34643;47.964;7.982;2022-07-29T11:38:28;96677.25;;;23.25;49.73
48390;BME280;34643;47.964;7.982;2022-07-29T11:49:04;96668.69;;;23.23;49.47
48390;BME280;34643;47.964;7.982;2022-07-29T11:54:05;96674.47;;;23.27;49.75
48390;BME280;34643;47.964;7.982;2022-07-29T11:59:05;96678.78;;;23.28;49.90
48390;BME280;34643;47.964;7.982;2022-07-29T12:04:06;96672.84;;;23.26;50.00
48390;BME280;34643;47.964;7.982;2022-07-29T12:09:07;96665.75;;;23.26;49.82
48390;BME280;34643;47.964;7.982;2022-07-29T12:14:08;96676.97;;;23.28;49.85
48390;BME280;34643;47.964;7.982;2022-07-29T12:19:08;96675.16;;;23.29;49.59
48390;BME280;34643;47.964;7.982;2022-07-29T12:24:08;96683.03;;;23.29;49.78
48390;BME280;34643;47.964;7.982;2022-07-29T12:29:14;96684.72;;;23.30;50.53
48390;BME280;34643;47.964;7.982;2022-07-29T12:34:15;96687.34;;;23.30;50.41
48390;BME280;34643;47.964;7.982;2022-07-29T12:39:16;96690.78;;;23.30;49.95
48390;BME280;34643;47.964;7.982;2022-07-29T12:44:17;96689.00;;;23.31;50.09
48390;BME280;34643;47.964;7.982;2022-07-29T12:49:23;96698.69;;;23.30;49.86
48390;BME280;34643;47.964;7.982;2022-07-29T12:54:23;96684.56;;;23.31;50.23
48390;BME280;34643;47.964;7.982;2022-07-29T12:59:24;96685.38;;;23.32;49.90
48390;BME280;34643;47.964;7.982;2022-07-29T13:04:31;96686.19;;;23.32;49.96
48390;BME280;34643;47.964;7.982;2022-07-29T13:09:38;96687.03;;;23.33;49.71
48390;BME280;34643;47.964;7.982;2022-07-29T13:14:40;96681.78;;;23.33;50.04
48390;BME280;34643;47.964;7.982;2022-07-29T13:19:42;96676.50;;;23.33;49.95
48390;BME280;34643;47.964;7.982;2022-07-29T13:24:58;96670.25;;;23.34;49.96
48390;BME280;34643;47.964;7.982;2022-07-29T13:30:00;96672.06;;;23.33;50.10
48390;BME280;34643;47.964;7.982;2022-07-29T13:35:01;96684.25;;;23.34;49.48
48390;BME280;34643;47.964;7.982;2022-07-29T13:40:02;96675.38;;;23.35;49.25
48390;BME280;34643;47.964;7.982;2022-07-29T13:45:03;96678.16;;;23.34;48.98
48390;BME280;34643;47.964;7.982;2022-07-29T13:50:04;96675.50;;;23.34;48.24
48390;BME280;34643;47.964;7.982;2022-07-29T13:55:05;96662.34;;;23.34;47.56
48390;BME280;34643;47.964;7.982;2022-07-29T14:00:06;96670.09;;;23.35;47.61
48390;BME280;34643;47.964;7.982;2022-07-29T14:05:08;96661.53;;;23.33;47.16
48390;BME280;34643;47.964;7.982;2022-07-29T14:10:09;96668.28;;;23.36;47.68
48390;BME280;34643;47.964;7.982;2022-07-29T14:15:10;96669.28;;;23.35;47.68
48390;BME280;34643;47.964;7.982;2022-07-29T14:20:10;96673.72;;;23.34;47.07
48390;BME280;34643;47.964;7.982;2022-07-29T14:25:10;96681.44;;;23.36;47.79
48390;BME280;34643;47.964;7.982;2022-07-29T14:30:11;96683.25;;;23.35;47.75
48390;BME280;34643;47.964;7.982;2022-07-29T14:35:11;96682.97;;;23.39;47.83
48390;BME280;34643;47.964;7.982;2022-07-29T14:40:12;96682.81;;;23.40;47.70
48390;BME280;34643;47.964;7.982;2022-07-29T14:45:12;96688.91;;;23.41;47.87
48390;BME280;34643;47.964;7.982;2022-07-29T14:50:12;96685.44;;;23.40;47.75
48390;BME280;34643;47.964;7.982;2022-07-29T14:55:13;96694.16;;;23.41;47.88
48390;BME280;34643;47.964;7.982;2022-07-29T15:00:13;96708.16;;;23.41;47.50
48390;BME280;34643;47.964;7.982;2022-07-29T15:05:14;96705.50;;;23.41;47.44
48390;BME280;34643;47.964;7.982;2022-07-29T15:10:14;96704.69;;;23.41;46.90
48390;BME280;34643;47.964;7.982;2022-07-29T15:15:14;96708.16;;;23.41;46.51
48390;BME280;34643;47.964;7.982;2022-07-29T15:20:14;96706.38;;;23.42;46.57
48390;BME280;34643;47.964;7.982;2022-07-29T15:25:15;96703.88;;;23.40;46.31
48390;BME280;34643;47.964;7.982;2022-07-29T15:30:15;96703.88;;;23.40;45.18
48390;BME280;34643;47.964;7.982;2022-07-29T15:35:16;96695.31;;;23.38;44.71
48390;BME280;34643;47.964;7.982;2022-07-29T15:40:17;96700.59;;;23.38;44.52
48390;BME280;34643;47.964;7.982;2022-07-29T15:45:17;96700.72;;;23.37;44.75
48390;BME280;34643;47.964;7.982;2022-07-29T15:50:17;96699.72;;;23.38;44.70
48390;BME280;34643;47.964;7.982;2022-07-29T15:55:19;96695.31;;;23.38;44.36
48390;BME280;34643;47.964;7.982;2022-07-29T16:00:19;96690.88;;;23.39;44.74
48390;BME280;34643;47.964;7.982;2022-07-29T16:05:21;96693.34;;;23.40;44.72
48390;BME280;34643;47.964;7.982;2022-07-29T16:10:22;96694.16;;;23.41;45.14
48390;BME280;34643;47.964;7.982;2022-07-29T16:15:22;96692.34;;;23.41;44.55
48390;BME280;34643;47.964;7.982;2022-07-29T16:20:26;96678.38;;;23.41;44.81
48390;BME280;34643;47.964;7.982;2022-07-29T16:25:26;96675.56;;;23.42;45.00
48390;BME280;34643;47.964;7.982;2022-07-29T16:30:26;96674.44;;;23.45;45.06
48390;BME280;34643;47.964;7.982;2022-07-29T16:35:27;96674.44;;;23.45;45.56
48390;BME280;34643;47.964;7.982;2022-07-29T16:40:29;96662.94;;;23.46;45.45
48390;BME280;34643;47.964;7.982;2022-07-29T16:45:29;96674.28;;;23.46;45.72
48390;BME280;34643;47.964;7.982;2022-07-29T16:50:30;96668.03;;;23.47;45.77
48390;BME280;34643;47.964;7.982;2022-07-29T16:55:30;96672.50;;;23.47;45.76
48390;BME280;34643;47.964;7.982;2022-07-29T17:00:30;96673.31;;;23.47;45.73
48390;BME280;34643;47.964;7.982;2022-07-29T17:05:31;96670.81;;;23.46;45.83
48390;BME280;34643;47.964;7.982;2022-07-29T17:10:31;96669.00;;;23.46;45.45
48390;BME280;34643;47.964;7.982;2022-07-29T17:15:31;96663.91;;;23.45;44.93
48390;BME280;34643;47.964;7.982;2022-07-29T17:20:31;96681.50;;;23.44;45.24
48390;BME280;34643;47.964;7.982;2022-07-29T17:25:32;96683.34;;;23.44;45.16
48390;BME280;34643;47.964;7.982;2022-07-29T17:30:32;96684.16;;;23.44;45.40
48390;BME280;34643;47.964;7.982;2022-07-29T17:35:32;96685.13;;;23.43;45.18
48390;BME280;34643;47.964;7.982;2022-07-29T17:40:51;96687.44;;;23.46;44.87
48390;BME280;34643;47.964;7.982;2022-07-29T17:45:52;96684.97;;;23.45;45.09
48390;BME280;34643;47.964;7.982;2022-07-29T17:50:52;96693.00;;;23.43;44.58
48390;BME280;34643;47.964;7.982;2022-07-29T17:55:52;96688.91;;;23.41;43.19
48390;BME280;34643;47.964;7.982;2022-07-29T18:00:52;96703.03;;;23.40;42.77
48390;BME280;34643;47.964;7.982;2022-07-29T18:05:53;96699.72;;;23.38;42.44
48390;BME280;34643;47.964;7.982;2022-07-29T18:10:53;96710.59;;;23.34;42.45
48390;BME280;34643;47.964;7.982;2022-07-29T18:15:53;96713.22;;;23.34;42.57
48390;BME280;34643;47.964;7.982;2022-07-29T18:20:53;96708.41;;;23.30;42.74
48390;BME280;34643;47.964;7.982;2022-07-29T18:25:54;96718.41;;;23.26;42.33
48390;BME280;34643;47.964;7.982;2022-07-29T18:30:54;96714.31;;;23.24;42.50
48390;BME280;34643;47.964;7.982;2022-07-29T18:35:54;96726.31;;;23.26;42.33
48390;BME280;34643;47.964;7.982;2022-07-29T18:40:55;96729.63;;;23.28;42.42
48390;BME280;34643;47.964;7.982;2022-07-29T18:45:55;96727.63;;;23.22;42.91
48390;BME280;34643;47.964;7.982;2022-07-29T18:50:56;96722.03;;;23.25;43.26
48390;BME280;34643;47.964;7.982;2022-07-29T18:55:56;96737.81;;;23.25;43.24
48390;BME280;34643;47.964;7.982;2022-07-29T19:00:56;96735.38;;;23.24;43.41
48390;BME280;34643;47.964;7.982;2022-07-29T19:05:56;96745.72;;;23.25;43.44
48390;BME280;34643;47.964;7.982;2022-07-29T19:10:57;96749.94;;;23.18;43.49
48390;BME280;34643;47.964;7.982;2022-07-29T19:15:57;96755.69;;;23.13;43.72
48390;BME280;34643;47.964;7.982;2022-07-29T19:20:57;96753.34;;;23.10;44.11
48390;BME280;34643;47.964;7.982;2022-07-29T19:25:57;96766.78;;;23.07;44.06
48390;BME280;34643;47.964;7.982;2022-07-29T19:30:58;96775.28;;;23.01;44.12
48390;BME280;34643;47.964;7.982;2022-07-29T19:35:59;96790.53;;;22.97;44.38
48390;BME280;34643;47.964;7.982;2022-07-29T19:41:01;96783.75;;;22.95;44.81
48390;BME280;34643;47.964;7.982;2022-07-29T19:46:01;96794.59;;;22.92;44.95
48390;BME280;34643;47.964;7.982;2022-07-29T19:51:01;96802.94;;;22.87;44.95
48390;BME280;34643;47.964;7.982;2022-07-29T19:56:02;96805.03;;;22.84;44.66
48390;BME280;34643;47.964;7.982;2022-07-29T20:01:02;96800.59;;;22.84;44.57
48390;BME280;34643;47.964;7.982;2022-07-29T20:06:03;96799.09;;;22.82;44.42
48390;BME280;34643;47.964;7.982;2022-07-29T20:11:03;96803.81;;;22.78;44.13
48390;BME280;34643;47.964;7.982;2022-07-29T20:16:03;96802.16;;;22.77;44.30
48390;BME280;34643;47.964;7.982;2022-07-29T20:21:05;96806.53;;;22.86;45.30
48390;BME280;34643;47.964;7.982;2022-07-29T20:26:05;96804.50;;;22.80;44.73
48390;BME280;34643;47.964;7.982;2022-07-29T20:31:06;96808.56;;;22.74;44.36
48390;BME280;34643;47.964;7.982;2022-07-29T20:36:07;96809.38;;;22.75;44.89
48390;BME280;34643;47.964;7.982;2022-07-29T20:41:07;96809.38;;;22.75;45.55
48390;BME280;34643;47.964;7.982;2022-07-29T20:46:08;96815.91;;;22.71;45.46
48390;BME280;34643;47.964;7.982;2022-07-29T20:51:09;96811.91;;;22.67;45.21
48390;BME280;34643;47.964;7.982;2022-07-29T20:56:09;96814.59;;;22.57;45.23
48390;BME280;34643;47.964;7.982;2022-07-29T21:01:11;96818.16;;;22.66;45.90
48390;BME280;34643;47.964;7.982;2022-07-29T21:06:11;96809.72;;;22.62;45.50
48390;BME280;34643;47.964;7.982;2022-07-29T21:11:11;96816.69;;;22.53;45.02
48390;BME280;34643;47.964;7.982;2022-07-29T21:16:12;96810.44;;;22.54;45.41
48390;BME280;34643;47.964;7.982;2022-07-29T21:21:13;96809.47;;;22.55;45.17
48390;BME280;34643;47.964;7.982;2022-07-29T21:26:13;96810.00;;;22.59;45.58
48390;BME280;34643;47.964;7.982;2022-07-29T21:31:15;96818.28;;;22.64;45.49
48390;BME280;34643;47.964;7.982;2022-07-29T21:36:15;96819.19;;;22.55;45.21
48390;BME280;34643;47.964;7.982;2022-07-29T21:41:15;96819.72;;;22.58;45.12
48390;BME280;34643;47.964;7.982;2022-07-29T21:46:16;96815.47;;;22.48;44.82
48390;BME280;34643;47.964;7.982;2022-07-29T21:51:17;96821.97;;;22.44;44.91
48390;BME280;34643;47.964;7.982;2022-07-29T21:56:17;96824.59;;;22.44;44.65
48390;BME280;34643;47.964;7.982;2022-07-29T22:01:17;96825.59;;;22.43;44.66
48390;BME280;34643;47.964;7.982;2022-07-29T22:06:18;96824.78;;;22.42;44.89
48390;BME280;34643;47.964;7.982;2022-07-29T22:11:18;96820.47;;;22.41;44.97
48390;BME280;34643;47.964;7.982;2022-07-29T22:16:18;96823.78;;;22.43;45.19
48390;BME280;34643;47.964;7.982;2022-07-29T22:21:19;96834.44;;;22.42;44.89
48390;BME280;34643;47.964;7.982;2022-07-29T22:26:19;96836.78;;;22.45;45.09
48390;BME280;34643;47.964;7.982;2022-07-29T22:31:19;96837.38;;;22.38;44.91
48390;BME280;34643;47.964;7.982;2022-07-29T22:36:20;96837.63;;;22.45;44.90
48390;BME280;34643;47.964;7.982;2022-07-29T22:41:20;96840.16;;;22.37;44.72
48390;BME280;34643;47.964;7.982;2022-07-29T22:46:20;96839.56;;;22.43;44.81
48390;BME280;34643;47.964;7.982;2022-07-29T22:51:20;96835.84;;;22.46;45.03
48390;BME280;34643;47.964;7.982;2022-07-29T22:56:21;96838.75;;;22.33;44.72
48390;BME280;34643;47.964;7.982;2022-07-29T23:01:21;96859.38;;;22.37;44.94
48390;BME280;34643;47.964;7.982;2022-07-29T23:06:22;96848.59;;;22.40;44.99
48390;BME280;34643;47.964;7.982;2022-07-29T23:11:22;96856.63;;;22.39;44.97
48390;BME280;34643;47.964;7.982;2022-07-29T23:16:22;96862.56;;;22.31;44.88
48390;BME280;34643;47.964;7.982;2022-07-29T23:21:23;96865.47;;;22.38;44.80
48390;BME280;34643;47.964;7.982;2022-07-29T23:26:23;96872.00;;;22.34;45.01
48390;BME280;34643;47.964;7.982;2022-07-29T23:31:24;96873.25;;;22.30;44.67
48390;BME280;34643;47.964;7.982;2022-07-29T23:36:24;96872.00;;;22.34;44.86
48390;BME280;34643;47.964;7.982;2022-07-29T23:41:28;96877.38;;;22.32;44.77
48390;BME280;34643;47.964;7.982;2022-07-29T23:46:29;96884.06;;;22.27;44.66
48390;BME280;34643;47.964;7.982;2022-07-29T23:51:29;96891.50;;;22.31;44.79
48390;BME280;34643;47.964;7.982;2022-07-29T23:56:30;96887.38;;;22.29;45.00
